createdAt,value
2023-05-04T00:00:11.196Z,69.77
2023-05-04T00:02:57.495Z,69.85
2023-05-04T00:05:42.981Z,70.38
2023-05-04T00:08:28.230Z,70.91
2023-05-04T00:11:13.563Z,71.29
2023-05-04T00:13:59.161Z,71.42
2023-05-04T00:16:44.694Z,71.55
2023-05-04T00:19:29.913Z,71.34
2023-05-04T00:22:15.298Z,71.55
2023-05-04T00:25:00.996Z,71.29
2023-05-04T00:27:46.595Z,70.77
2023-05-04T00:30:32.266Z,70.08
2023-05-04T00:33:18.130Z,70.34
2023-05-04T00:36:04.445Z,70.21
2023-05-04T00:38:54.886Z,70.28
2023-05-04T00:41:40.966Z,70.38
2023-05-04T00:44:28.102Z,70.63
2023-05-04T00:47:14.080Z,70.69
2023-05-04T00:49:59.893Z,70.63
2023-05-04T00:52:46.928Z,70.32
2023-05-04T00:55:32.664Z,70.37
2023-05-04T00:58:19.031Z,70.27
2023-05-04T01:01:05.232Z,70.39
2023-05-04T01:03:52.094Z,70.78
2023-05-04T01:07:15.994Z,70.62
2023-05-04T01:10:15.481Z,70.76
2023-05-04T01:13:06.334Z,70.62
2023-05-04T01:15:53.336Z,70.91
2023-05-04T01:18:38.826Z,71.26
2023-05-04T01:21:24.113Z,71.19
2023-05-04T01:24:10.031Z,71.31
2023-05-04T01:27:28.901Z,71.31
2023-05-04T01:30:19.152Z,71.26
2023-05-04T01:33:04.959Z,71.50
2023-05-04T01:35:50.910Z,71.43
2023-05-04T01:38:36.625Z,71.45
2023-05-04T01:41:21.955Z,71.49
2023-05-04T01:44:07.733Z,71.46
2023-05-04T01:46:53.240Z,72.40
2023-05-04T01:49:38.460Z,72.75
2023-05-04T01:52:24.412Z,73.40
2023-05-04T01:55:10.461Z,73.91
2023-05-04T01:57:55.898Z,74.00
2023-05-04T02:00:41.153Z,74.57
2023-05-04T02:03:26.674Z,74.90
2023-05-04T02:06:12.401Z,75.25
2023-05-04T02:08:57.756Z,75.38
2023-05-04T02:11:43.219Z,75.31
2023-05-04T02:14:28.906Z,75.88
2023-05-04T02:17:14.357Z,75.69
2023-05-04T02:19:59.740Z,75.33
2023-05-04T02:22:45.153Z,75.63
2023-05-04T02:25:30.894Z,75.44
2023-05-04T02:28:16.547Z,75.48
2023-05-04T02:31:02.478Z,75.13
2023-05-04T02:33:48.430Z,75.74
2023-05-04T02:36:34.499Z,75.44
2023-05-04T02:39:20.793Z,75.64
2023-05-04T02:42:09.331Z,75.57
2023-05-04T02:44:54.684Z,75.06
2023-05-04T02:47:40.209Z,75.27
2023-05-04T02:50:25.702Z,75.02
2023-05-04T02:53:11.126Z,75.14
2023-05-04T02:55:56.908Z,75.09
2023-05-04T02:58:42.369Z,75.17
2023-05-04T03:01:27.932Z,75.29
2023-05-04T03:04:13.369Z,75.49
2023-05-04T03:06:58.573Z,75.53
2023-05-04T03:09:45.378Z,75.67
2023-05-04T03:12:33.167Z,75.83
2023-05-04T03:15:19.124Z,75.75
2023-05-04T03:18:04.763Z,76.19
2023-05-04T03:20:50.745Z,76.28
2023-05-04T03:23:40.231Z,76.06
2023-05-04T03:26:25.941Z,76.11
2023-05-04T03:29:11.233Z,76.07
2023-05-04T03:31:58.250Z,76.00
2023-05-04T03:34:45.885Z,75.86
2023-05-04T03:37:32.525Z,76.22
2023-05-04T03:40:23.130Z,75.78
2023-05-04T03:43:11.219Z,76.05
2023-05-04T03:45:56.781Z,76.04
2023-05-04T03:48:42.502Z,76.24
2023-05-04T03:51:31.892Z,76.47
2023-05-04T03:54:17.470Z,75.95
2023-05-04T03:57:04.492Z,76.29
2023-05-04T03:59:52.100Z,76.54
2023-05-04T04:02:37.612Z,76.52
2023-05-04T04:05:23.442Z,76.58
2023-05-04T04:08:11.577Z,76.35
2023-05-04T04:10:57.951Z,76.43
2023-05-04T04:13:43.450Z,76.21
2023-05-04T04:16:29.639Z,76.68
2023-05-04T04:19:14.991Z,76.07
2023-05-04T04:22:00.348Z,76.16
2023-05-04T04:24:45.959Z,75.94
2023-05-04T04:27:31.367Z,76.09
2023-05-04T04:30:16.898Z,76.22
2023-05-04T04:33:03.696Z,75.82
2023-05-04T04:35:49.723Z,76.26
2023-05-04T04:38:35.678Z,76.15
2023-05-04T04:41:21.865Z,76.07
2023-05-04T04:44:07.552Z,76.47
2023-05-04T04:46:53.181Z,76.62
2023-05-04T04:49:38.463Z,76.86
2023-05-04T04:52:24.162Z,76.58
2023-05-04T04:55:09.712Z,76.46
2023-05-04T04:57:55.821Z,76.58
2023-05-04T05:00:42.042Z,76.00
2023-05-04T05:03:27.534Z,76.04
2023-05-04T05:06:14.521Z,76.50
2023-05-04T05:09:00.299Z,76.39
2023-05-04T05:11:45.787Z,76.41
2023-05-04T05:14:47.697Z,76.11
2023-05-04T05:18:12.541Z,76.30
2023-05-04T05:21:07.378Z,75.69
2023-05-04T05:23:53.184Z,76.20
2023-05-04T05:26:38.635Z,76.25
2023-05-04T05:29:25.233Z,75.74
2023-05-04T05:32:10.943Z,75.68
2023-05-04T05:34:56.847Z,76.25
2023-05-04T05:37:42.369Z,75.75
2023-05-04T05:40:29.066Z,75.50
2023-05-04T05:43:14.358Z,75.74
2023-05-04T05:46:00.500Z,75.67
2023-05-04T05:48:46.037Z,76.17
2023-05-04T05:51:31.732Z,76.09
2023-05-04T05:54:17.546Z,76.29
2023-05-04T05:57:03.350Z,75.39
2023-05-04T05:59:49.179Z,75.27
2023-05-04T06:02:35.328Z,75.67
2023-05-04T06:05:20.977Z,75.15
2023-05-04T06:08:06.840Z,75.26
2023-05-04T06:10:52.596Z,75.63
2023-05-04T06:13:38.503Z,74.88
2023-05-04T06:16:23.974Z,75.00
2023-05-04T06:19:09.517Z,74.73
2023-05-04T06:21:56.415Z,74.78
2023-05-04T06:24:42.697Z,74.92
2023-05-04T06:27:32.992Z,74.85
2023-05-04T06:30:25.791Z,75.14
2023-05-04T06:33:13.002Z,75.05
2023-05-04T06:35:59.657Z,75.30
2023-05-04T06:38:45.174Z,75.42
2023-05-04T06:41:31.698Z,75.40
2023-05-04T06:44:18.155Z,74.76
2023-05-04T06:47:03.909Z,75.11
2023-05-04T06:49:49.597Z,75.36
2023-05-04T06:52:35.884Z,75.19
2023-05-04T06:55:21.155Z,75.18
2023-05-04T06:58:06.978Z,74.53
2023-05-04T07:00:53.301Z,74.31
2023-05-04T07:03:39.295Z,74.03
2023-05-04T07:06:29.539Z,74.35
2023-05-04T07:09:15.172Z,74.10
2023-05-04T07:12:00.920Z,74.24
2023-05-04T07:14:46.403Z,74.72
2023-05-04T07:17:32.797Z,74.15
2023-05-04T07:20:21.073Z,74.14
2023-05-04T07:23:07.323Z,74.02
2023-05-04T07:25:53.807Z,74.36
2023-05-04T07:28:39.798Z,74.14
2023-05-04T07:31:26.641Z,74.27
2023-05-04T07:34:13.767Z,74.35
2023-05-04T07:37:00.276Z,73.18
2023-05-04T07:39:48.582Z,72.75
2023-05-04T07:42:35.151Z,72.31
2023-05-04T07:45:20.581Z,72.56
2023-05-04T07:48:06.256Z,72.87
2023-05-04T07:50:52.058Z,72.20
2023-05-04T07:53:38.800Z,71.84
2023-05-04T09:08:33.688Z,75.32
2023-05-04T09:11:19.330Z,74.82
2023-05-04T09:14:04.825Z,73.64
2023-05-04T09:16:50.595Z,72.61
2023-05-04T09:19:36.827Z,71.50
2023-05-04T09:22:22.593Z,71.51
2023-05-04T09:25:10.999Z,70.21
2023-05-04T09:27:56.372Z,69.41
2023-05-04T09:30:41.952Z,68.87
2023-05-04T09:33:27.550Z,68.85
2023-05-04T09:36:15.585Z,69.79
2023-05-04T09:39:15.288Z,68.21
2023-05-04T09:42:00.889Z,68.47
2023-05-04T09:44:47.112Z,68.07
2023-05-04T09:47:37.209Z,67.91
2023-05-04T09:50:23.259Z,68.30
2023-05-04T09:53:09.768Z,68.61
2023-05-04T09:56:20.269Z,67.98
2023-05-04T09:59:06.363Z,67.89
2023-05-04T10:01:53.589Z,67.78
2023-05-04T10:04:39.630Z,67.58
2023-05-04T10:07:29.435Z,67.89
2023-05-04T10:10:15.568Z,67.72
2023-05-04T10:13:00.914Z,67.63
2023-05-04T10:15:54.800Z,67.73
2023-05-04T10:18:49.733Z,68.03
2023-05-04T10:21:48.933Z,67.90
2023-05-04T10:24:40.477Z,68.45
2023-05-04T10:27:42.737Z,67.57
2023-05-04T10:30:28.516Z,68.11
2023-05-04T10:33:14.251Z,68.19
2023-05-04T10:36:00.449Z,68.15
2023-05-04T10:38:46.434Z,68.48
2023-05-04T10:41:32.478Z,68.73
2023-05-04T10:44:18.337Z,68.64
2023-05-04T10:47:08.228Z,67.62
2023-05-04T10:50:16.010Z,67.73
2023-05-04T10:53:02.647Z,67.16
2023-05-04T10:55:49.048Z,67.16
2023-05-04T10:58:34.421Z,67.67
2023-05-04T11:01:21.721Z,67.43
2023-05-04T11:04:07.943Z,67.13
2023-05-04T11:07:01.080Z,67.02
2023-05-04T11:09:46.835Z,66.87
2023-05-04T11:12:32.983Z,66.09
2023-05-04T11:15:19.298Z,66.30
2023-05-04T11:18:04.833Z,66.06
2023-05-04T11:20:50.361Z,66.69
2023-05-04T11:23:36.486Z,66.97
2023-05-04T11:26:22.464Z,65.72
2023-05-04T11:29:14.794Z,65.20
2023-05-04T11:32:00.704Z,65.76
2023-05-04T11:34:46.730Z,64.48
2023-05-04T11:37:39.264Z,63.88
2023-05-04T11:40:26.970Z,64.43
2023-05-04T11:43:12.722Z,63.82
2023-05-04T11:46:01.106Z,63.56
2023-05-04T11:48:47.540Z,63.71
2023-05-04T11:51:33.375Z,64.31
2023-05-04T11:54:22.372Z,63.86
2023-05-04T11:57:08.002Z,63.21
2023-05-04T11:59:53.555Z,62.75
2023-05-04T12:02:39.343Z,62.52
2023-05-04T12:05:25.123Z,62.43
2023-05-04T12:08:21.265Z,62.55
2023-05-04T12:11:17.796Z,62.13
2023-05-04T12:14:11.696Z,61.82
2023-05-04T12:17:00.728Z,62.06
2023-05-04T12:19:51.076Z,61.86
2023-05-04T12:22:36.429Z,61.28
2023-05-04T12:25:22.940Z,61.08
2023-05-04T12:28:08.095Z,61.39
2023-05-04T12:30:53.458Z,60.88
2023-05-04T12:33:38.820Z,60.63
2023-05-04T12:36:24.469Z,61.29
2023-05-04T12:39:09.894Z,61.40
2023-05-04T12:41:55.436Z,61.21
2023-05-04T12:44:41.119Z,60.63
2023-05-04T12:47:26.766Z,59.64
2023-05-04T12:50:12.195Z,60.27
2023-05-04T12:52:57.618Z,59.91
2023-05-04T12:55:43.146Z,60.23
2023-05-04T12:58:28.724Z,59.96
2023-05-04T13:01:14.571Z,60.64
2023-05-04T13:03:59.986Z,60.31
2023-05-04T13:06:48.332Z,59.81
2023-05-04T13:09:34.077Z,59.11
2023-05-04T13:12:19.397Z,59.42
2023-05-04T13:15:05.364Z,59.96
2023-05-04T13:17:52.299Z,59.58
2023-05-04T13:20:39.535Z,60.29
2023-05-04T13:23:24.867Z,60.91
2023-05-04T13:26:10.159Z,59.93
2023-05-04T13:28:55.797Z,59.66
2023-05-04T13:31:44.785Z,59.66
2023-05-04T13:34:30.881Z,59.92
2023-05-04T13:37:18.507Z,60.32
2023-05-04T13:40:04.613Z,60.80
2023-05-04T13:42:50.578Z,60.27
2023-05-04T13:45:36.274Z,59.79
2023-05-04T13:48:21.743Z,59.84
2023-05-04T13:51:07.877Z,60.03
2023-05-04T13:53:53.755Z,59.25
2023-05-04T13:56:39.260Z,58.97
2023-05-04T13:59:24.966Z,58.92
2023-05-04T14:02:11.083Z,58.67
2023-05-04T14:04:57.494Z,58.59
2023-05-04T14:07:43.274Z,58.44
2023-05-04T14:10:28.621Z,58.70
2023-05-04T14:13:13.957Z,58.39
2023-05-04T14:16:03.865Z,57.61
2023-05-04T14:18:50.400Z,57.90
2023-05-04T14:21:36.478Z,56.57
2023-05-04T14:24:24.983Z,56.08
2023-05-04T14:27:10.548Z,57.14
2023-05-04T14:29:59.039Z,56.08
2023-05-04T14:32:46.032Z,54.40
2023-05-04T14:35:31.319Z,55.80
2023-05-04T14:38:17.217Z,54.94
2023-05-04T14:41:07.408Z,55.11
2023-05-04T14:44:00.418Z,54.97
2023-05-04T14:46:47.073Z,55.65
2023-05-04T14:49:37.048Z,55.21
2023-05-04T14:52:23.518Z,55.76
2023-05-04T14:55:12.487Z,55.22
2023-05-04T14:57:58.622Z,55.28
2023-05-04T15:00:48.106Z,55.49
2023-05-04T15:03:34.039Z,55.54
2023-05-04T15:06:20.197Z,55.26
2023-05-04T15:09:15.187Z,55.53
2023-05-04T15:12:01.070Z,55.64
2023-05-04T15:14:49.351Z,55.59
2023-05-04T15:17:35.079Z,55.81
2023-05-04T15:20:20.764Z,55.94
2023-05-04T15:23:10.915Z,55.91
2023-05-04T15:25:56.971Z,56.05
2023-05-04T15:28:46.029Z,56.53
2023-05-04T15:31:36.578Z,56.39
2023-05-04T15:34:22.322Z,56.41
2023-05-04T15:37:07.672Z,56.31
2023-05-04T15:39:53.962Z,56.48
2023-05-04T15:42:39.920Z,56.33
2023-05-04T15:45:25.849Z,56.26
2023-05-04T15:48:11.660Z,56.66
2023-05-04T15:50:57.689Z,56.80
2023-05-04T15:53:43.361Z,56.86
2023-05-04T15:56:30.904Z,56.71
2023-05-04T15:59:18.767Z,56.87
2023-05-04T16:02:06.310Z,55.82
2023-05-04T16:04:52.296Z,56.07
2023-05-04T16:07:37.909Z,56.28
2023-05-04T16:10:23.569Z,56.53
2023-05-04T16:13:12.057Z,56.41
2023-05-04T16:15:58.308Z,56.50
2023-05-04T16:18:44.154Z,56.66
2023-05-04T16:24:15.134Z,56.78
2023-05-04T16:27:00.692Z,56.64
2023-05-04T16:29:46.284Z,56.86
2023-05-04T16:32:31.793Z,57.31
2023-05-04T16:35:17.506Z,57.54
2023-05-04T16:38:03.870Z,57.79
2023-05-04T16:40:51.876Z,57.74
2023-05-04T16:43:37.401Z,57.70
2023-05-04T16:46:22.791Z,57.78
2023-05-04T16:49:10.077Z,58.27
2023-05-04T16:51:57.255Z,58.22
2023-05-04T16:54:43.413Z,58.39
2023-05-04T16:57:33.024Z,58.76
2023-05-04T17:00:18.466Z,58.51
2023-05-04T17:03:08.056Z,58.70
2023-05-04T17:05:54.215Z,57.84
2023-05-04T17:08:39.780Z,57.91
2023-05-04T17:11:25.635Z,57.66
2023-05-04T17:14:11.094Z,57.39
2023-05-04T17:16:56.531Z,57.41
2023-05-04T17:19:42.045Z,57.71
2023-05-04T17:22:27.406Z,57.96
2023-05-04T17:25:13.852Z,57.94
2023-05-04T17:27:59.298Z,58.06
2023-05-04T17:30:44.701Z,58.09
2023-05-04T17:33:30.540Z,58.34
2023-05-04T17:36:16.534Z,58.26
2023-05-04T17:39:01.808Z,58.04
2023-05-04T17:41:48.790Z,58.37
2023-05-04T17:44:34.094Z,58.24
2023-05-04T17:47:19.892Z,58.26
2023-05-04T17:50:05.878Z,59.02
2023-05-04T17:52:55.582Z,58.94
2023-05-04T17:55:41.067Z,59.38
2023-05-04T17:58:26.650Z,59.47
2023-05-04T18:01:12.429Z,59.59
2023-05-04T18:03:57.842Z,59.84
2023-05-04T18:06:43.962Z,59.70
2023-05-04T18:09:29.412Z,59.47
2023-05-04T18:12:14.846Z,60.16
2023-05-04T18:15:00.281Z,60.22
2023-05-04T18:17:45.860Z,60.36
2023-05-04T18:20:31.129Z,60.76
2023-05-04T18:23:16.704Z,60.82
2023-05-04T18:26:02.515Z,60.87
2023-05-04T18:28:48.936Z,61.02
2023-05-04T18:31:34.637Z,60.34
2023-05-04T18:34:20.045Z,60.63
2023-05-04T18:37:05.441Z,61.11
2023-05-04T18:39:51.229Z,60.99
2023-05-04T18:42:36.900Z,61.26
2023-05-04T18:45:22.390Z,61.19
2023-05-04T18:48:08.014Z,61.13
2023-05-04T18:50:57.182Z,61.20
2023-05-04T18:53:42.835Z,61.21
2023-05-04T18:56:28.486Z,61.59
2023-05-04T18:59:13.686Z,61.89
2023-05-04T19:01:59.229Z,61.63
2023-05-04T19:04:46.821Z,62.23
2023-05-04T19:07:32.197Z,62.25
2023-05-04T19:10:17.891Z,62.20
2023-05-04T19:13:04.534Z,62.36
2023-05-04T19:15:50.757Z,62.36
2023-05-04T19:18:36.412Z,62.39
2023-05-04T19:21:22.733Z,61.79
2023-05-04T19:24:10.082Z,62.04
2023-05-04T19:26:56.170Z,61.93
2023-05-04T19:29:41.747Z,62.41
2023-05-04T19:32:28.492Z,62.39
2023-05-04T19:35:14.721Z,62.33
2023-05-04T19:38:01.630Z,62.29
2023-05-04T19:40:47.588Z,62.50
2023-05-04T19:43:33.607Z,62.00
2023-05-04T19:46:19.466Z,62.07
2023-05-04T19:49:05.168Z,61.91
2023-05-04T19:51:51.410Z,61.29
2023-05-04T19:54:38.296Z,61.13
2023-05-04T19:57:24.007Z,61.00
2023-05-04T20:00:10.441Z,61.11
2023-05-04T20:02:59.419Z,61.38
2023-05-04T20:05:45.475Z,61.36
2023-05-04T20:08:31.103Z,60.90
2023-05-04T20:11:16.480Z,60.86
2023-05-04T20:14:01.911Z,61.47
2023-05-04T20:16:47.385Z,61.42
2023-05-04T20:19:32.820Z,61.82
2023-05-04T20:22:18.622Z,62.15
2023-05-04T20:25:07.850Z,62.61
2023-05-04T20:27:54.104Z,62.63
2023-05-04T20:30:39.762Z,62.62
2023-05-04T20:33:25.340Z,62.53
2023-05-04T20:36:12.611Z,62.50
2023-05-04T20:38:58.324Z,62.46
2023-05-04T20:41:43.750Z,62.55
2023-05-04T20:44:29.411Z,62.63
2023-05-04T20:47:14.908Z,61.92
2023-05-04T20:50:00.434Z,62.06
2023-05-04T20:52:46.131Z,62.63
2023-05-04T20:55:32.003Z,63.28
2023-05-04T20:58:20.221Z,63.40
2023-05-04T21:01:05.996Z,63.57
2023-05-04T21:03:52.056Z,64.47
2023-05-04T21:06:37.665Z,64.90
2023-05-04T21:09:22.977Z,65.47
2023-05-04T21:12:08.382Z,65.79
2023-05-04T21:14:53.690Z,65.85
2023-05-04T21:17:39.702Z,65.43
2023-05-04T21:20:25.001Z,64.72
2023-05-04T21:23:10.460Z,64.79
2023-05-04T21:26:05.003Z,65.01
2023-05-04T21:28:51.425Z,64.97
2023-05-04T21:31:36.916Z,65.38
2023-05-04T21:34:23.024Z,65.67
2023-05-04T21:37:08.686Z,65.64
2023-05-04T21:39:55.775Z,65.52
2023-05-04T21:42:41.113Z,65.87
2023-05-04T21:45:26.545Z,65.97
2023-05-04T21:48:11.982Z,66.02
2023-05-04T21:50:57.375Z,66.31
2023-05-04T21:53:43.346Z,66.46
2023-05-04T21:56:28.974Z,66.68
2023-05-04T21:59:14.109Z,66.48
2023-05-04T22:01:59.614Z,66.45
2023-05-04T22:04:45.508Z,65.92
2023-05-04T22:07:31.075Z,66.35
2023-05-04T22:10:17.341Z,66.17
2023-05-04T22:13:02.772Z,65.58
2023-05-04T22:15:50.519Z,65.66
2023-05-04T22:18:36.462Z,65.16
2023-05-04T22:21:21.781Z,65.30
2023-05-04T22:24:07.282Z,65.36
2023-05-04T22:26:52.680Z,65.48
2023-05-04T22:29:38.179Z,65.50
2023-05-04T22:32:23.654Z,65.74
2023-05-04T22:35:09.413Z,65.61
2023-05-04T22:37:54.791Z,65.24
2023-05-04T22:40:40.647Z,65.64
2023-05-04T22:43:26.231Z,65.74
2023-05-04T22:46:16.861Z,66.57
2023-05-04T22:49:02.165Z,67.14
2023-05-04T22:51:47.954Z,67.33
2023-05-04T22:54:33.352Z,67.25
2023-05-04T22:57:19.503Z,67.34
2023-05-04T23:00:07.746Z,67.57
2023-05-04T23:02:54.056Z,67.59
2023-05-04T23:05:39.111Z,67.32
2023-05-04T23:08:25.318Z,68.31
2023-05-04T23:11:11.691Z,68.53
2023-05-04T23:13:57.049Z,69.10
2023-05-04T23:16:42.449Z,69.12
2023-05-04T23:19:28.181Z,69.74
2023-05-04T23:22:14.556Z,69.69
2023-05-04T23:25:00.604Z,69.64
2023-05-04T23:27:46.344Z,69.68
2023-05-04T23:30:31.702Z,69.70
2023-05-04T23:33:17.122Z,69.33
2023-05-04T23:36:02.763Z,69.24
2023-05-04T23:38:48.535Z,69.88
2023-05-04T23:41:34.218Z,69.41
2023-05-04T23:44:21.172Z,70.13
2023-05-04T23:47:06.903Z,69.89
2023-05-04T23:49:52.184Z,69.66
2023-05-04T23:52:38.027Z,70.01
2023-05-04T23:55:23.413Z,69.56
2023-05-04T23:58:09.193Z,69.51
